Dernières infos :  

11/05/2017  Mise à jour des tableaux d'analyses décadaires : rubrique climatologie
03/05/2017 Mise en ligne de la synthèse climatologique d'Avril 2017 : 
CLIQUEZ ICI
01/05/2017  Mise à jour des tableaux d'analyses décadaires, mensuelles et annuelles : rubrique climatologie   

Si l'entête du tableau ne s'affiche pas correctement, => actualisez la page (F5 avec Internet Explorer, Chrome...).
Utilisez l'ascenseur sur la droite des lignes du tableau pour faire défiler verticalement les jours du mois.

TABLEAU DES DONNEES COMPLETES NOAA d'AVRIL 2013

DATE TEMPERATURE
sous abri
TEMPARATURE 
au sol
VENT  et  Indice de Refroidissement Eolien  PRECIPITATIONS (en mm/m2)
et Intensité
PRESSION ATMOSPHERIQUE (en hPa) HUMIDITE de l'AIR RADIATIONS SOLAIRES (en W/m2)
Mini Moy. Maxi Mini Moy. Maxi Moyen Rafale I.R.E.
Minii
Précip. jour Cumul mois Intensité Maxi Mini Moy. Maxi Mini Moy. Maxi Pic maxi du jour Total jour
01/04/2013 -3° 4.3° 12.6° -4.4° 18.9° 0.5km/h dir NNO 12.9km/h dir NNO -3° 0.2 0.2   999.5 1001.7 1004.9 45% 77.9% 96% 967 51 062
02/04/2013 0.7° 6.7° 13.2° -0.6° 7.8° 20° 1.9km/h dir NO 17.7km/h dir NO 0.8° 0 0.2   1000.2 1002.1 1005.6 49% 75.3% 95% 791 56 412
03/04/2013 0.4° 6.9° 13.4° -1.1° 7.9° 20° 1.8km/h dir NO 19.3km/h dir NO 0.4° 0 0.2   1003.8 1006.2 1007.8 49% 72.9% 93% 765 64 976
04/04/2013 0.3° 15.4° -1.1° 8.5° 21.1° 0.5km/h dir NO 12.9km/h dir E 0.3° 0 0.2   999.3 1001.6 1003.8 48% 75.9% 95% 773 44 759
05/04/2013 5.4° 7.3° 7.2° 10.6° 3.4km/h dir NO 24.1km/h dir ONO 3.6° 0 0.2   999.4 1003.6 1009.5 76% 83.1% 91% 329 16 763
06/04/2013 3.7° 11.1° 3.3° 7.7° 17.8° 10km/h dir NNO 38.6km/h dir N 1.2° 0 0.2   1009 1012.4 1018.1 63% 76.2% 90% 853 38 557
07/04/2013 4.3° 6.9° 11.8° 2.2° 7.6° 18.3° 6.8km/h dir NNO 24.1km/h dir N 0 0.2   1009.9 1015.3 1018.1 54% 69.9% 81% 742 44 714
08/04/2013 2.8° 6.4° 11.1° 1.7° 6.3° 15.6° 2.3km/h dir SSO 24.1km/h dir SE 2.8° 6 6.2 24mm/h 1004.3 1006.5 1009.9 72% 85.1% 94% 795 26 878
09/04/2013 6.2° 9.6° 15.4° 9.4° 21.1° 8.2km/h dir S 45.1km/h dir OSO 4.2° 2.8 9 3mm/h 1002.8 1005 1009 51% 78.5% 94% 1041 36 986
10/04/2013 6.6° 11.8° 16.9° 12.1° 24.4° 4.2km/h dir S 33.8km/h dir SO 6.6° 4 13 9.6mm/h 1009 1011.3 1013.2 45% 69.7% 94% 984 45 706
11/04/2013 10.3° 13.1° 16.8° 9.4° 12.3° 18.3° 7.4km/h dir S 38.6km/h dir SSO 9.3° 21.8 34.8 44.6mm/h 1002.6 1006.5 1010.2 65% 81.3% 96% 490 19 856
12/04/2013 7.6° 10.6° 15.6° 6.1° 10.4° 21.7° 2.4km/h dir S 33.8km/h dir SSO 7.6° 5 39.8 53.8mm/h 1007 1010.8 1016.8 54% 85.1% 96% 1274 32 663
13/04/2013 7.5° 13.1° 19.2° 5.6° 14.7° 27.2° 1.6km/h dir SSO 22.5km/h dir OSO 7.5° 0 39.8   1016.7 1020.2 1022.6 39% 66.9% 90% 967 73 357
14/04/2013 16.4° 24.8° 3.9° 17.3° 30.6° 6km/h dir S 40.2km/h dir S 0 39.8   1019.9 1021.9 1023.3 31% 58.4% 93% 830 75 226
15/04/2013 12.4° 17.9° 23.3° 8.9° 18.3° 32.2° 5km/h dir S 32.2km/h dir SSO 12.5° 0 39.8   1017.8 1019.9 1021.7 32% 49.3% 78% 1020 55 189
16/04/2013 9.3° 16.5° 23.5° 7.2° 17.5° 32.2° 1km/h dir NO 16.1km/h dir NO 9.3° 0 39.8   1018.6 1020.7 1022.4 39% 65.3% 88% 877 67 041
17/04/2013 7.7° 17.7° 26.6° 5.6° 19.1° 33.3° 2.4km/h dir S 22.5km/h dir S 7.7° 0 39.8   1016.9 1020.5 1022.8 25% 61.2% 95% 840 75 655
18/04/2013 13.3° 17.8° 21.1° 12.2° 18.9° 28.3° 6km/h dir S 29km/h dir NO 12.9° 0 39.8   1017.8 1019.8 1022.2 44% 58.3% 73% 928 62 229
19/04/2013 9.3° 10.9° 13.3° 8.3° 10.6° 12.8° 4.3km/h dir N 27.4km/h dir NNO 8.3° 2.4 42.2 6.6mm/h 1021.6 1022.9 1023.7 48% 73.5% 94% 225 18 516
20/04/2013 6.4° 7.9° 9.6° 5.6° 7.3° 11.1° 13.2km/h dir N 41.8km/h dir N 2.4° 5.6 47.8 2.6mm/h 1018 1019.5 1023 62% 84.4% 91% 353 14 494
21/04/2013 7.3° 9.6° 12° 6.7° 10° 13.9° 3.2km/h dir NNO 19.3km/h dir N 6.7° 0 47.8   1017.2 1018.4 1019.4 70% 81.8% 90% 348 26 085
22/04/2013 6.5° 10.9° 15° 3.3° 11° 19.4° 3.4km/h dir N 27.4km/h dir NNO 6.6° 0 47.8   1016.1 1017.2 1019.1 53% 76.1% 92% 654 35 197
23/04/2013 2.4° 11.1° 19.5° 0.6° 12.2° 26.7° 3.5km/h dir NO 24.1km/h dir NO 2.4° 0 47.8   1019 1021.9 1024.1 42% 70.1% 96% 882 77 559
24/04/2013 4.3° 13.8° 23.5° 2.2° 15.3° 31.7° 1.6km/h dir SSO 17.7km/h dir OSO 4.3° 0 47.8   1023.9 1025.4 1027.4 34% 68.5% 95% 844 77 302
25/04/2013 7.4° 16.7° 26.2° 18° 34.4° 1km/h dir NO 12.9km/h dir NNO 7.4° 0 47.8   1018.2 1022.2 1024.8 32% 66.1% 93% 833 76 558
26/04/2013 12.6° 16° 18.7° 12.2° 15.3° 23.3° 1.9km/h dir S 19.3km/h dir SSE 12.6° 4.6 52.4 3.8mm/h 1006.5 1012.4 1018 66% 81.2% 94% 483 18 180
27/04/2013 3.2° 6.3° 12.6° 2.8° 6.2° 12.2° 6.1km/h dir NNO 25.7km/h dir ONO 35 87.4 16.8mm/h 1005.4 1007.1 1011.4 91% 93.7% 95% 149 11 818
28/04/2013 3.6° 6.2° 8.8° 2.2° 6.7° 17.2° 1.6km/h dir N 16.1km/h dir N 3.6° 3.2 90.6 2.8mm/h 1011.3 1014.3 1017.2 76% 89.4% 96% 868 26 983
29/04/2013 6.7° 8.4° 9.7° 6.1° 8.2° 10.6° 2.7km/h dir N 22.5km/h dir N 5.6° 4 94.6 4mm/h 1015.2 1017.1 1018.9 92% 94.7% 96% 241 10 208
30/04/2013 9.4° 11.9° 15.1° 8.9° 12.4° 18.9° 1.8km/h dir NO 17.7km/h dir ONO 9.4° 6 100.6 2.4mm/h 1013.9 1014.9 1016.2 89% 94.3% 97% 714 25 872

RETOUR ACCUEIL

 


Date de création : 21/01/2014 : 21:17
Dernière modification : 09/02/2015 : 18:26
Catégorie : ARCHIVES 2002 à 2016 - ANNEES 2010 à 2019 - ANNEE 2013 - AVRIL 2013
Page lue 1423 fois


Réactions à cet article

Personne n'a encore laissé de commentaire.
Soyez donc le premier !